首页
METAR-TAF:

METAR-TAF

机场 :

卡迪夫機場

加的夫, 威尔士

纬度: 51-24N, 经度: 003-21W, 海拔: 67米

当前天气观测

该预报发布于32分钟前的03:20 UTC
风速10节,风向
温度 11°C
湿度 82%
气压 1005 hPa
能见度10公里或以上
多云层高于2500英尺
阴天层高于3400英尺

METAR: EGFF 240320Z AUTO 18010KT 9999 BKN025 OVC034 11/08 Q1005

时间: 04:52 (03:52 UTC)

预报

该预报发布于4小时和46分钟前的23:06 UTC
预报有效从24日的 00点(UTC)到 24日的 24点(UTC)
风速10节,风向
能见度10公里或以上
散云层高于3000英尺
短暂存在
从 24日的 01点(UTC)到 24日的 05点(UTC)
风速15节,风向南转西南,有时为27节阵风
成为
从 24日的 05点(UTC)到 24日的 08点(UTC)
风速20节,风向南转西南,有时为30节阵风
几率 30% :
短暂存在
从 24日的 06点(UTC)到 24日的 10点(UTC)
能見度: 7000
多云层高于1400英尺
短暂存在
从 24日的 10点(UTC)到 24日的 19点(UTC)
能見度: 6000
多云层高于1400英尺
几率 30% :
短暂存在
从 24日的 11点(UTC)到 24日的 14点(UTC)
风速24节,风向南转西南,有时为40节阵风
能見度: 3000
大阵雨
成为
从 24日的 13点(UTC)到 24日的 16点(UTC)
风速14节,风向西转西南
几率 30% :
短暂存在
从 24日的 16点(UTC)到 24日的 24点(UTC)
风速17节,风向西转西南,有时为27节阵风

TAF: EGFF 232306Z 2400/2424 19010KT 9999 SCT030 TEMPO 2401/2405 20015G27KT BECMG 2405/2408 20020G30KT PROB30 TEMPO 2406/2410 7000 RA BKN014 TEMPO 2410/2419 6000 RA BKN014 PROB30 TEMPO 2411/2414 20024G40KT 3000 +SHRA BECMG 2413/2416 24014KT PROB30 TEMPO 2416/2424 25017G27KT

超过4000个机场的气象观测和天气预报(METAR&TAF报告)。

可查询的气象台以黄色和红色小点在地图上表示。

将鼠标移到小点上方,可查看气象台名称。

然后点击查看天气观测和预报。

如需切换地图:点击带黑十字的绿色按钮放大地图;点击带横线的绿色按钮缩小地图;或者点击绿色箭头查看邻近地区的地图。


METAR-TAF: